createdAt,value
2019-05-03T00:02:13.319Z,6.77
2019-05-03T00:04:43.660Z,6.77
2019-05-03T00:07:11.795Z,6.62
2019-05-03T00:09:40.300Z,6.60
2019-05-03T00:12:08.496Z,6.57
2019-05-03T00:14:38.907Z,6.51
2019-05-03T00:17:06.499Z,6.44
2019-05-03T00:19:33.987Z,6.41
2019-05-03T00:22:02.073Z,6.39
2019-05-03T00:24:31.918Z,6.44
2019-05-03T00:26:58.979Z,6.43
2019-05-03T00:29:26.474Z,6.33
2019-05-03T00:31:53.977Z,6.36
2019-05-03T00:34:26.237Z,6.42
2019-05-03T00:37:07.612Z,6.39
2019-05-03T00:39:41.753Z,6.42
2019-05-03T00:42:09.079Z,6.37
2019-05-03T00:44:37.335Z,6.32
2019-05-03T00:47:04.845Z,6.37
2019-05-03T00:49:32.332Z,6.28
2019-05-03T00:52:02.271Z,6.36
2019-05-03T00:54:31.578Z,6.32
2019-05-03T00:56:58.948Z,6.34
2019-05-03T00:59:26.432Z,6.37
2019-05-03T01:01:53.947Z,6.37
2019-05-03T01:04:22.345Z,6.30
2019-05-03T01:06:50.027Z,6.23
2019-05-03T01:09:22.525Z,6.28
2019-05-03T01:11:50.172Z,6.38
2019-05-03T01:14:17.663Z,6.42
2019-05-03T01:16:45.164Z,6.44
2019-05-03T01:19:12.651Z,6.42
2019-05-03T01:21:42.163Z,6.40
2019-05-03T01:24:09.368Z,6.28
2019-05-03T01:26:36.876Z,6.36
2019-05-03T01:29:04.367Z,6.44
2019-05-03T01:31:32.111Z,6.43
2019-05-03T01:33:59.599Z,6.50
2019-05-03T01:36:27.104Z,6.48
2019-05-03T01:38:54.592Z,6.39
2019-05-03T01:41:22.098Z,6.42
2019-05-03T01:43:49.592Z,6.38
2019-05-03T01:46:17.096Z,6.40
2019-05-03T01:48:46.224Z,6.32
2019-05-03T01:51:27.226Z,6.23
2019-05-03T01:53:54.715Z,6.07
2019-05-03T01:56:22.377Z,6.13
2019-05-03T01:58:49.988Z,6.04
2019-05-03T02:01:19.127Z,6.04
2019-05-03T02:03:52.301Z,6.07
2019-05-03T02:06:19.879Z,6.11
2019-05-03T02:08:47.377Z,6.03
2019-05-03T02:11:15.640Z,6.03
2019-05-03T02:13:43.133Z,6.02
2019-05-03T02:16:11.598Z,6.03
2019-05-03T02:18:39.204Z,5.93
2019-05-03T02:21:06.699Z,5.86
2019-05-03T02:23:34.256Z,5.75
2019-05-03T02:26:03.098Z,5.77
2019-05-03T02:28:32.550Z,5.68
2019-05-03T02:31:03.589Z,5.73
2019-05-03T02:33:29.968Z,5.73
2019-05-03T02:35:57.457Z,5.75
2019-05-03T02:38:24.961Z,5.69
2019-05-03T02:40:53.204Z,5.73
2019-05-03T02:43:25.870Z,5.68
2019-05-03T02:45:56.715Z,5.57
2019-05-03T02:48:36.815Z,5.67
2019-05-03T02:51:06.554Z,5.68
2019-05-03T02:53:36.050Z,5.66
2019-05-03T02:56:14.985Z,5.73
2019-05-03T02:58:35.700Z,5.68
2019-05-03T03:01:02.555Z,5.63
2019-05-03T03:03:30.448Z,5.49
2019-05-03T03:05:58.214Z,5.62
2019-05-03T03:08:27.513Z,5.51
2019-05-03T03:10:56.631Z,5.56
2019-05-03T03:13:25.305Z,5.40
2019-05-03T03:15:55.306Z,5.41
2019-05-03T03:18:25.299Z,5.30
2019-05-03T03:20:51.886Z,5.42
2019-05-03T03:23:19.402Z,5.25
2019-05-03T03:25:47.313Z,5.24
2019-05-03T03:28:15.879Z,5.21
2019-05-03T03:31:00.248Z,5.40
2019-05-03T03:33:28.564Z,5.28
2019-05-03T03:36:01.314Z,5.32
2019-05-03T03:38:26.196Z,5.28
2019-05-03T03:40:58.682Z,5.24
2019-05-03T03:43:25.962Z,5.21
2019-05-03T03:45:55.698Z,5.23
2019-05-03T03:48:23.284Z,5.11
2019-05-03T03:50:50.777Z,5.09
2019-05-03T03:53:18.354Z,5.04
2019-05-03T03:55:46.918Z,5.23
2019-05-03T03:58:22.052Z,5.26
2019-05-03T04:00:46.156Z,5.19
2019-05-03T04:03:15.532Z,5.19
2019-05-03T04:05:42.077Z,5.16
2019-05-03T04:08:09.577Z,5.10
2019-05-03T04:10:37.073Z,5.11
2019-05-03T04:13:06.220Z,5.16
2019-05-03T04:15:37.052Z,5.21
2019-05-03T04:18:09.361Z,5.22
2019-05-03T04:20:37.929Z,5.21
2019-05-03T04:23:05.499Z,5.17
2019-05-03T04:25:35.621Z,5.16
2019-05-03T04:28:05.816Z,5.27
2019-05-03T04:30:36.165Z,5.06
2019-05-03T04:33:05.683Z,5.08
2019-05-03T04:35:31.819Z,5.12
2019-05-03T04:37:59.320Z,5.17
2019-05-03T04:40:26.845Z,5.18
2019-05-03T04:42:55.572Z,5.18
2019-05-03T04:45:25.488Z,5.15
2019-05-03T04:47:55.673Z,5.10
2019-05-03T04:50:25.256Z,5.18
2019-05-03T04:52:51.913Z,5.27
2019-05-03T04:55:19.404Z,5.25
2019-05-03T04:57:50.302Z,5.18
2019-05-03T05:00:16.928Z,5.30
2019-05-03T05:02:45.740Z,5.37
2019-05-03T05:05:15.457Z,5.50
2019-05-03T05:07:45.387Z,5.64
2019-05-03T05:10:15.108Z,5.73
2019-05-03T05:12:41.572Z,5.77
2019-05-03T05:15:10.541Z,5.79
2019-05-03T05:17:39.657Z,5.86
2019-05-03T05:20:27.069Z,5.77
2019-05-03T05:22:54.569Z,5.84
2019-05-03T05:25:32.504Z,5.54
2019-05-03T05:28:05.014Z,5.33
2019-05-03T05:30:32.564Z,5.56
2019-05-03T05:33:00.824Z,5.75
2019-05-03T05:35:28.325Z,5.91
2019-05-03T05:37:55.816Z,6.04
2019-05-03T05:40:24.541Z,6.16
2019-05-03T05:42:52.190Z,6.13
2019-05-03T05:45:19.788Z,6.06
2019-05-03T05:47:57.567Z,6.16
2019-05-03T05:50:29.396Z,6.16
2019-05-03T05:52:57.562Z,6.39
2019-05-03T05:55:27.472Z,6.55
2019-05-03T05:58:05.373Z,6.39
2019-05-03T06:00:42.223Z,6.55
2019-05-03T06:03:09.707Z,6.57
2019-05-03T06:05:37.213Z,6.56
2019-05-03T06:08:06.340Z,6.42
2019-05-03T06:10:35.482Z,6.35
2019-05-03T06:13:04.982Z,6.40
2019-05-03T06:15:44.713Z,6.57
2019-05-03T06:18:19.548Z,6.67
2019-05-03T06:21:07.045Z,6.90
2019-05-03T06:23:36.172Z,6.99
2019-05-03T06:26:05.314Z,7.19
2019-05-03T06:28:35.252Z,7.13
2019-05-03T06:31:04.851Z,7.01
2019-05-03T06:33:34.677Z,7.09
2019-05-03T06:36:02.310Z,6.79
2019-05-03T06:38:29.797Z,6.57
2019-05-03T06:40:57.300Z,6.59
2019-05-03T06:43:24.784Z,6.40
2019-05-03T06:45:54.661Z,6.32
2019-05-03T06:48:26.646Z,6.39
2019-05-03T06:50:51.554Z,6.60
2019-05-03T06:53:19.716Z,7.02
2019-05-03T06:55:48.497Z,7.49
2019-05-03T06:58:29.777Z,7.85
2019-05-03T07:00:47.824Z,7.91
2019-05-03T07:03:32.200Z,8.05
2019-05-03T07:06:17.753Z,7.96
2019-05-03T07:09:05.956Z,8.19
2019-05-03T07:11:34.858Z,8.25
2019-05-03T07:14:02.527Z,8.16
2019-05-03T07:16:30.041Z,8.16
2019-05-03T07:18:58.577Z,7.92
2019-05-03T07:21:26.305Z,7.84
2019-05-03T07:23:55.159Z,8.12
2019-05-03T07:26:22.875Z,8.47
2019-05-03T07:28:50.365Z,8.36
2019-05-03T07:31:17.873Z,8.64
2019-05-03T07:33:45.352Z,8.49
2019-05-03T07:36:15.050Z,8.57
2019-05-03T07:38:42.072Z,8.77
2019-05-03T07:41:10.250Z,9.27
2019-05-03T07:43:37.745Z,9.58
2019-05-03T07:46:05.588Z,9.43
2019-05-03T07:48:35.356Z,9.18
2019-05-03T07:51:02.952Z,8.67
2019-05-03T07:53:30.445Z,8.48
2019-05-03T07:56:05.535Z,8.34
2019-05-03T07:58:35.187Z,7.83
2019-05-03T08:01:09.952Z,8.03
2019-05-03T08:03:36.812Z,8.80
2019-05-03T08:06:04.849Z,8.42
2019-05-03T08:08:32.492Z,7.99
2019-05-03T08:11:00.001Z,7.78
2019-05-03T08:13:27.497Z,7.69
2019-05-03T08:15:55.742Z,7.44
2019-05-03T08:18:25.562Z,7.58
2019-05-03T08:20:52.796Z,7.94
2019-05-03T08:23:27.330Z,8.37
2019-05-03T08:25:50.968Z,8.34
2019-05-03T08:28:18.596Z,8.38
2019-05-03T08:31:04.771Z,8.06
2019-05-03T08:33:44.724Z,8.19
2019-05-03T08:36:12.112Z,8.07
2019-05-03T08:38:40.373Z,7.98
2019-05-03T08:41:09.517Z,8.27
2019-05-03T08:43:37.788Z,8.63
2019-05-03T08:46:05.373Z,8.36
2019-05-03T08:48:35.261Z,8.32
2019-05-03T08:51:02.101Z,8.13
2019-05-03T08:53:29.588Z,7.77
2019-05-03T08:55:57.086Z,7.67
2019-05-03T08:58:25.596Z,7.81
2019-05-03T09:00:54.671Z,8.06
2019-05-03T09:03:22.323Z,7.97
2019-05-03T09:05:49.864Z,7.76
2019-05-03T09:08:17.466Z,7.72
2019-05-03T09:10:49.793Z,7.91
2019-05-03T09:13:19.726Z,7.93
2019-05-03T09:15:48.868Z,7.94
2019-05-03T09:18:17.469Z,7.77
2019-05-03T09:20:45.351Z,7.73
2019-05-03T09:23:14.729Z,7.61
2019-05-03T09:25:42.129Z,7.80
2019-05-03T09:28:09.624Z,7.79
2019-05-03T09:30:37.121Z,7.95
2019-05-03T09:33:08.450Z,8.87
2019-05-03T09:35:36.077Z,9.22
2019-05-03T09:38:05.532Z,9.62
2019-05-03T09:40:35.057Z,9.76
2019-05-03T09:43:04.345Z,10.20
2019-05-03T09:45:31.486Z,9.81
2019-05-03T09:47:59.032Z,9.57
2019-05-03T09:50:26.520Z,9.15
2019-05-03T09:52:55.386Z,9.05
2019-05-03T09:55:25.347Z,8.87
2019-05-03T09:57:53.008Z,8.61
2019-05-03T10:00:20.501Z,8.25
2019-05-03T10:02:48.000Z,8.05
2019-05-03T10:05:15.588Z,8.19
2019-05-03T10:07:43.204Z,8.41
2019-05-03T10:10:10.692Z,8.94
2019-05-03T10:12:38.200Z,9.88
2019-05-03T10:15:06.488Z,10.41
2019-05-03T10:17:35.809Z,10.46
2019-05-03T10:20:05.796Z,10.53
2019-05-03T10:22:34.895Z,10.13
2019-05-03T10:25:04.900Z,10.02
2019-05-03T10:27:46.949Z,10.07
2019-05-03T10:30:19.477Z,9.89
2019-05-03T10:32:48.620Z,10.10
2019-05-03T10:35:16.681Z,9.97
2019-05-03T10:37:45.305Z,9.93
2019-05-03T10:40:13.056Z,9.58
2019-05-03T10:42:40.628Z,9.04
2019-05-03T10:45:08.120Z,8.88
2019-05-03T10:47:35.621Z,8.77
2019-05-03T10:50:04.755Z,9.00
2019-05-03T10:52:37.114Z,9.02
2019-05-03T10:55:05.670Z,9.58
2019-05-03T10:57:35.538Z,9.78
2019-05-03T11:00:05.114Z,9.83
2019-05-03T11:02:35.096Z,9.77
2019-05-03T11:05:05.246Z,9.55
2019-05-03T11:07:34.590Z,10.01
2019-05-03T11:10:02.244Z,10.30
2019-05-03T11:12:29.760Z,10.55
2019-05-03T11:14:57.254Z,10.77
2019-05-03T11:17:25.619Z,10.98
2019-05-03T11:19:54.713Z,10.43
2019-05-03T11:22:25.072Z,10.78
2019-05-03T11:24:54.655Z,11.55
2019-05-03T11:27:29.321Z,11.13
2019-05-03T11:29:59.126Z,10.57
2019-05-03T11:32:30.475Z,10.14
2019-05-03T11:34:59.595Z,9.69
2019-05-03T11:37:28.731Z,9.49
2019-05-03T11:39:56.988Z,9.70
2019-05-03T11:42:24.584Z,9.76
2019-05-03T11:44:52.067Z,9.35
2019-05-03T11:47:19.550Z,9.30
2019-05-03T11:49:47.058Z,9.65
2019-05-03T11:52:15.886Z,9.90
2019-05-03T11:54:45.315Z,10.37
2019-05-03T11:57:17.433Z,11.00
2019-05-03T11:59:46.992Z,10.86
2019-05-03T12:02:16.130Z,11.05
2019-05-03T12:04:45.218Z,11.65
2019-05-03T12:07:15.336Z,11.59
2019-05-03T12:09:45.232Z,11.20
2019-05-03T12:12:15.176Z,10.88
2019-05-03T12:14:45.339Z,10.97
2019-05-03T12:17:22.576Z,11.51
2019-05-03T12:19:46.846Z,11.71
2019-05-03T12:22:16.254Z,12.41
2019-05-03T12:24:45.534Z,12.90
2019-05-03T12:27:12.365Z,13.23
2019-05-03T12:29:39.875Z,13.62
2019-05-03T12:32:07.368Z,12.54
2019-05-03T12:34:35.314Z,12.19
2019-05-03T12:37:04.967Z,11.88
2019-05-03T12:39:35.389Z,10.87
2019-05-03T12:42:01.503Z,10.57
2019-05-03T12:44:29.002Z,10.43
2019-05-03T12:46:56.496Z,10.77
2019-05-03T12:49:25.037Z,10.55
2019-05-03T12:51:52.645Z,10.73
2019-05-03T12:54:20.148Z,10.71
2019-05-03T12:56:47.644Z,10.72
2019-05-03T12:59:31.704Z,10.48
2019-05-03T13:02:04.861Z,10.69
2019-05-03T13:04:37.316Z,11.45
2019-05-03T13:07:21.227Z,11.61
2019-05-03T13:09:48.739Z,11.37
2019-05-03T13:12:17.883Z,11.20
2019-05-03T13:14:45.513Z,10.79
2019-05-03T13:17:15.134Z,10.92
2019-05-03T13:19:42.656Z,10.73
2019-05-03T13:22:10.193Z,10.60
2019-05-03T13:24:37.696Z,10.46
2019-05-03T13:27:05.736Z,10.31
2019-05-03T13:29:34.848Z,10.25
2019-05-03T13:32:02.516Z,9.89
2019-05-03T13:34:30.020Z,9.98
2019-05-03T13:36:57.802Z,10.39
2019-05-03T13:39:26.628Z,10.68
2019-05-03T13:41:54.951Z,11.15
2019-05-03T13:44:22.528Z,11.68
2019-05-03T13:46:50.694Z,11.24
2019-05-03T13:49:19.572Z,11.32
2019-05-03T13:51:47.366Z,11.76
2019-05-03T13:54:15.557Z,11.40
2019-05-03T13:56:43.052Z,11.12
2019-05-03T13:59:19.102Z,10.96
2019-05-03T14:01:39.791Z,10.39
2019-05-03T14:04:07.297Z,10.33
2019-05-03T14:06:36.651Z,10.52
2019-05-03T14:09:05.360Z,11.27
2019-05-03T14:11:32.934Z,11.74
2019-05-03T14:14:01.283Z,11.70
2019-05-03T14:16:29.529Z,11.51
2019-05-03T14:18:58.661Z,11.34
2019-05-03T14:21:34.542Z,11.20
2019-05-03T14:24:11.929Z,11.06
2019-05-03T14:26:40.005Z,11.01
2019-05-03T14:29:07.505Z,10.86
2019-05-03T14:31:35.009Z,10.85
2019-05-03T14:34:02.517Z,10.88
2019-05-03T14:36:30.677Z,10.97
2019-05-03T14:38:58.468Z,11.04
2019-05-03T14:41:25.960Z,11.26
2019-05-03T14:43:55.575Z,11.70
2019-05-03T14:46:30.041Z,11.90
2019-05-03T14:48:51.913Z,12.15
2019-05-03T14:51:19.416Z,12.07
2019-05-03T14:53:49.711Z,11.44
2019-05-03T14:56:18.840Z,11.14
2019-05-03T14:58:56.674Z,11.20
2019-05-03T15:01:25.825Z,11.16
2019-05-03T15:03:54.973Z,11.24
2019-05-03T15:06:24.805Z,11.16
2019-05-03T15:08:51.827Z,11.34
2019-05-03T15:11:19.420Z,11.58
2019-05-03T15:13:46.926Z,11.99
2019-05-03T15:16:15.191Z,11.37
2019-05-03T15:18:45.242Z,11.17
2019-05-03T15:21:14.484Z,10.54
2019-05-03T15:23:42.667Z,10.89
2019-05-03T15:26:10.178Z,11.14
2019-05-03T15:28:38.341Z,10.71
2019-05-03T15:31:05.849Z,10.63
2019-05-03T15:33:35.187Z,10.80
2019-05-03T15:36:04.597Z,10.59
2019-05-03T15:38:31.811Z,10.68
2019-05-03T15:40:59.315Z,10.58
2019-05-03T15:43:29.030Z,10.50
2019-05-03T15:45:58.640Z,10.61
2019-05-03T15:48:27.788Z,10.61
2019-05-03T15:50:55.496Z,10.48
2019-05-03T15:53:24.697Z,10.64
2019-05-03T15:55:52.448Z,10.68
2019-05-03T15:58:19.940Z,10.75
2019-05-03T16:00:47.618Z,10.85
2019-05-03T16:03:15.125Z,10.56
2019-05-03T16:05:44.589Z,10.53
2019-05-03T16:08:11.848Z,10.66
2019-05-03T16:10:39.353Z,10.63
2019-05-03T16:13:06.853Z,10.70
2019-05-03T16:15:35.186Z,10.64
2019-05-03T16:18:04.998Z,10.40
2019-05-03T16:20:32.158Z,10.10
2019-05-03T16:23:01.338Z,9.94
2019-05-03T16:25:28.843Z,9.75
2019-05-03T16:28:01.304Z,9.81
2019-05-03T16:30:30.433Z,9.67
2019-05-03T16:32:57.931Z,9.58
2019-05-03T16:35:25.705Z,9.48
2019-05-03T16:37:54.452Z,9.56
2019-05-03T16:40:22.081Z,9.47
2019-05-03T16:42:50.247Z,9.44
2019-05-03T16:45:17.732Z,9.38
2019-05-03T16:47:45.230Z,9.43
2019-05-03T16:50:14.450Z,9.31
2019-05-03T16:52:42.167Z,9.34
2019-05-03T16:55:09.660Z,9.43
2019-05-03T16:57:37.931Z,9.24
2019-05-03T17:00:06.490Z,9.17
2019-05-03T17:02:35.044Z,9.09
2019-05-03T17:05:14.690Z,9.08
2019-05-03T17:07:49.911Z,9.03
2019-05-03T17:10:27.874Z,8.93
2019-05-03T17:12:56.969Z,8.90
2019-05-03T17:15:24.994Z,8.89
2019-05-03T17:17:52.615Z,8.83
2019-05-03T17:20:20.961Z,8.76
2019-05-03T17:22:48.460Z,8.91
2019-05-03T17:25:16.261Z,9.01
2019-05-03T17:27:44.903Z,9.02
2019-05-03T17:30:12.536Z,9.10
2019-05-03T17:32:40.830Z,9.05
2019-05-03T17:35:08.315Z,9.08
2019-05-03T17:37:35.827Z,8.92
2019-05-03T17:40:21.686Z,8.92
2019-05-03T17:42:59.568Z,9.05
2019-05-03T17:45:29.472Z,8.89
2019-05-03T17:47:56.972Z,9.04
2019-05-03T17:50:24.461Z,8.93
2019-05-03T17:53:10.160Z,9.08
2019-05-03T17:55:39.291Z,8.97
2019-05-03T17:58:08.449Z,8.84
2019-05-03T18:00:56.081Z,8.72
2019-05-03T18:03:25.763Z,8.62
2019-05-03T18:05:57.875Z,8.79
2019-05-03T18:08:27.013Z,8.74
2019-05-03T18:10:56.424Z,8.69
2019-05-03T18:13:24.781Z,8.62
2019-05-03T18:15:54.249Z,8.58
2019-05-03T18:18:21.511Z,8.60
2019-05-03T18:20:49.003Z,8.61
2019-05-03T18:23:16.518Z,8.49
2019-05-03T18:25:44.702Z,8.57
2019-05-03T18:28:14.625Z,8.55
2019-05-03T18:30:41.608Z,8.61
2019-05-03T18:33:09.112Z,8.53
2019-05-03T18:35:36.638Z,8.45
2019-05-03T18:38:04.249Z,8.37
2019-05-03T18:40:32.906Z,8.35
2019-05-03T18:43:08.323Z,8.51
2019-05-03T18:45:37.569Z,8.42
2019-05-03T18:48:05.138Z,8.43
2019-05-03T18:50:32.704Z,8.25
2019-05-03T18:53:00.633Z,8.21
2019-05-03T18:55:28.136Z,8.22
2019-05-03T18:57:55.625Z,8.17
2019-05-03T19:00:24.639Z,8.06
2019-05-03T19:02:54.631Z,8.06
2019-05-03T19:05:24.319Z,8.03
2019-05-03T19:07:59.560Z,7.92
2019-05-03T19:10:35.396Z,7.93
2019-05-03T19:13:07.828Z,7.92
2019-05-03T19:15:35.334Z,7.83
2019-05-03T19:18:04.465Z,7.75
2019-05-03T19:20:31.995Z,7.71
2019-05-03T19:22:59.481Z,7.78
2019-05-03T19:25:26.985Z,7.82
2019-05-03T19:27:54.622Z,7.75
2019-05-03T19:30:24.331Z,7.83
2019-05-03T19:32:51.626Z,7.84
2019-05-03T19:35:19.119Z,7.71
2019-05-03T19:37:46.775Z,7.60
2019-05-03T19:40:14.285Z,7.69
2019-05-03T19:42:41.784Z,7.72
2019-05-03T19:45:09.280Z,7.60
2019-05-03T19:47:36.767Z,7.62
2019-05-03T19:50:05.657Z,7.56
2019-05-03T19:52:37.010Z,7.46
2019-05-03T19:55:07.577Z,7.49
2019-05-03T19:57:36.712Z,7.44
2019-05-03T20:00:08.490Z,7.30
2019-05-03T20:02:54.408Z,7.22
2019-05-03T20:05:38.771Z,7.23
2019-05-03T20:08:16.695Z,7.28
2019-05-03T20:10:45.076Z,7.29
2019-05-03T20:13:12.570Z,7.32
2019-05-03T20:15:40.149Z,7.12
2019-05-03T20:18:07.640Z,7.03
2019-05-03T20:20:35.812Z,6.89
2019-05-03T20:23:05.129Z,7.03
2019-05-03T20:25:32.555Z,6.95
2019-05-03T20:28:00.038Z,7.03
2019-05-03T20:30:27.541Z,7.03
2019-05-03T20:32:55.580Z,7.13
2019-05-03T20:35:25.134Z,7.02
2019-05-03T20:37:52.427Z,7.05
2019-05-03T20:40:19.934Z,7.08
2019-05-03T20:42:49.073Z,7.17
2019-05-03T20:45:24.870Z,7.16
2019-05-03T20:47:59.700Z,7.15
2019-05-03T20:50:27.267Z,7.10
2019-05-03T20:52:55.062Z,6.92
2019-05-03T20:55:22.740Z,6.75
2019-05-03T20:57:50.245Z,6.82
2019-05-03T21:00:19.395Z,6.68
2019-05-03T21:02:53.479Z,6.91
2019-05-03T21:05:26.785Z,6.88
2019-05-03T21:07:45.577Z,6.91
2019-05-03T21:10:15.550Z,7.06
2019-05-03T21:12:42.720Z,7.07
2019-05-03T21:15:15.501Z,7.11
2019-05-03T21:17:50.435Z,6.97
2019-05-03T21:20:22.267Z,6.91
2019-05-03T21:22:49.761Z,6.90
2019-05-03T21:25:18.904Z,6.81
2019-05-03T21:27:46.402Z,6.68
2019-05-03T21:30:15.128Z,6.63
2019-05-03T21:32:44.392Z,6.61
2019-05-03T21:35:11.985Z,6.63
2019-05-03T21:37:39.487Z,6.71
2019-05-03T21:40:06.986Z,6.64
2019-05-03T21:42:35.107Z,6.69
2019-05-03T21:45:04.586Z,6.65
2019-05-03T21:47:35.123Z,6.45
2019-05-03T21:50:04.693Z,6.62
2019-05-03T21:52:32.265Z,6.59
2019-05-03T21:54:59.752Z,6.58
2019-05-03T21:57:27.253Z,6.44
2019-05-03T21:59:55.052Z,6.37
2019-05-03T22:02:24.563Z,6.23
2019-05-03T22:04:52.015Z,6.23
2019-05-03T22:07:20.284Z,6.09
2019-05-03T22:09:47.768Z,6.11
2019-05-03T22:12:15.272Z,6.09
2019-05-03T22:14:47.086Z,5.92
2019-05-03T22:17:34.441Z,5.97
2019-05-03T22:20:04.890Z,5.86
2019-05-03T22:22:36.334Z,5.72
2019-05-03T22:25:05.865Z,5.74
2019-05-03T22:27:37.684Z,5.64
2019-05-03T22:30:06.812Z,5.56
2019-05-03T22:32:35.503Z,5.42
2019-05-03T22:35:04.921Z,5.27
2019-05-03T22:37:34.971Z,5.16
2019-05-03T22:40:02.202Z,5.16
2019-05-03T22:42:29.692Z,5.02
2019-05-03T22:44:57.200Z,4.98
2019-05-03T22:47:25.338Z,4.99
2019-05-03T22:49:54.776Z,4.89
2019-05-03T22:52:22.439Z,4.97
2019-05-03T22:54:49.937Z,5.02
2019-05-03T22:57:17.437Z,5.07
2019-05-03T22:59:45.228Z,5.04
2019-05-03T23:02:16.842Z,5.18
2019-05-03T23:04:44.682Z,5.08
2019-05-03T23:07:11.842Z,5.08
2019-05-03T23:09:39.389Z,5.00
2019-05-03T23:12:06.892Z,5.03
2019-05-03T23:14:34.756Z,5.03
2019-05-03T23:17:02.355Z,4.97
2019-05-03T23:19:30.821Z,4.99
2019-05-03T23:22:06.118Z,4.98
2019-05-03T23:24:35.227Z,4.74
2019-05-03T23:27:04.845Z,4.73
2019-05-03T23:29:32.204Z,4.56
2019-05-03T23:31:59.708Z,4.55
2019-05-03T23:34:27.283Z,4.44
2019-05-03T23:36:54.875Z,4.40
2019-05-03T23:39:22.443Z,4.51
2019-05-03T23:41:49.944Z,4.38
2019-05-03T23:44:17.432Z,4.45
2019-05-03T23:46:49.727Z,4.48
2019-05-03T23:49:17.993Z,4.55
2019-05-03T23:51:52.399Z,4.47
2019-05-03T23:54:19.892Z,4.42
2019-05-03T23:56:47.459Z,4.56
2019-05-03T23:59:15.088Z,4.60
